Time;durP1;ratioP1;P1;durP2;ratioP2;P2;SDS_P1;SDS_P2;PMS_P1;PMS_P2;Temp;Humidity;BMP_temperature;BMP_pressure;BME280_temperature;BME280_humidity;BME280_pressure;Samples;Min_cycle;Max_cycle;Signal;HPM_P1;HPM_P2
2023/04/08 00:01:27;;;;;;;12.03;9.47;;;;;;;8.31;100.00;98411.78;5071420;28;20229;-84
2023/04/08 00:03:54;;;;;;;11.70;8.57;;;;;;;8.31;100.00;98414.41;5071945;28;20235;-84
2023/04/08 00:06:20;;;;;;;13.00;9.20;;;;;;;8.26;100.00;98412.97;5071961;28;20210;-84
2023/04/08 00:08:47;;;;;;;12.47;8.80;;;;;;;8.17;100.00;98408.16;5071797;28;20211;-84
2023/04/08 00:11:13;;;;;;;9.90;8.57;;;;;;;8.19;100.00;98408.94;5070823;28;20240;-84
2023/04/08 00:13:40;;;;;;;12.77;10.07;;;;;;;8.21;100.00;98415.00;5071515;28;20200;-84
2023/04/08 00:16:08;;;;;;;12.17;9.30;;;;;;;8.19;100.00;98415.09;5071225;28;20698;-84
2023/04/08 00:18:36;;;;;;;11.50;9.30;;;;;;;8.20;100.00;98413.31;5071372;28;20213;-84
2023/04/08 00:21:03;;;;;;;12.40;9.50;;;;;;;8.19;100.00;98406.28;5070954;28;20281;-84
2023/04/08 00:23:30;;;;;;;12.10;9.73;;;;;;;8.12;100.00;98405.81;5071682;28;20239;-84
2023/04/08 00:25:56;;;;;;;11.67;9.53;;;;;;;8.08;100.00;98406.06;5071457;28;20513;-84
2023/04/08 00:28:23;;;;;;;13.27;10.47;;;;;;;8.09;100.00;98410.38;5071734;28;20213;-84
2023/04/08 00:30:50;;;;;;;12.33;9.30;;;;;;;8.11;100.00;98413.78;5070648;28;20233;-84
2023/04/08 00:33:18;;;;;;;12.43;9.83;;;;;;;8.05;100.00;98414.97;5071559;28;20238;-84
2023/04/08 00:35:45;;;;;;;12.87;9.73;;;;;;;8.11;100.00;98416.41;5071395;28;20687;-84
2023/04/08 00:38:11;;;;;;;12.70;9.50;;;;;;;8.09;100.00;98413.03;5071476;28;20208;-84
2023/04/08 00:40:38;;;;;;;14.07;10.60;;;;;;;8.05;100.00;98424.63;5070958;28;20259;-84
2023/04/08 00:43:04;;;;;;;14.17;10.27;;;;;;;8.08;100.00;98419.22;5071725;28;20210;-84
2023/04/08 00:45:33;;;;;;;15.13;10.37;;;;;;;8.03;100.00;98421.25;5071864;28;20230;-84
2023/04/08 00:47:59;;;;;;;14.83;10.80;;;;;;;8.06;100.00;98419.28;5071500;28;20218;-84
2023/04/08 00:50:27;;;;;;;15.07;10.93;;;;;;;7.98;100.00;98421.50;5070769;28;20734;-84
2023/04/08 00:52:54;;;;;;;15.10;10.37;;;;;;;8.02;100.00;98430.91;5071321;28;20210;-84
2023/04/08 00:55:20;;;;;;;13.23;9.27;;;;;;;8.01;100.00;98431.84;5071551;28;20211;-84
2023/04/08 00:57:48;;;;;;;15.40;10.30;;;;;;;7.98;100.00;98423.28;5071645;28;20212;-84
2023/04/08 01:00:15;;;;;;;14.20;10.67;;;;;;;8.05;100.00;98429.91;5070150;28;20232;-84
2023/04/08 01:02:47;;;;;;;11.70;9.23;;;;;;;8.08;100.00;98427.94;5071614;28;20211;-84
2023/04/08 01:05:19;;;;;;;13.23;9.73;;;;;;;8.03;100.00;98429.97;5070914;28;20218;-83
2023/04/08 01:07:49;;;;;;;15.13;10.83;;;;;;;8.00;100.00;98430.16;5071817;28;20238;-84
2023/04/08 01:10:20;;;;;;;14.17;10.93;;;;;;;7.95;100.00;98426.09;5073890;28;20240;-84
2023/04/08 01:12:51;;;;;;;13.27;10.53;;;;;;;8.02;100.00;98432.72;5084561;28;20209;-83
2023/04/08 01:15:18;;;;;;;14.47;10.20;;;;;;;7.98;100.00;98428.53;5097765;28;20199;-83
2023/04/08 01:17:47;;;;;;;13.27;10.20;;;;;;;8.04;100.00;98430.84;5094489;28;20218;-83
2023/04/08 01:20:15;;;;;;;13.53;10.33;;;;;;;8.00;100.00;98430.16;5095431;28;20239;-84
2023/04/08 01:22:58;;;;;;;13.30;10.47;;;;;;;8.01;100.00;98431.00;5094114;28;20246;-83
2023/04/08 01:25:30;;;;;;;13.17;10.23;;;;;;;8.06;100.00;98434.22;5094433;28;20237;-84
2023/04/08 01:27:59;;;;;;;13.97;10.20;;;;;;;8.06;100.00;98426.34;5078965;28;20218;-84
2023/04/08 01:30:29;;;;;;;13.20;10.20;;;;;;;8.08;100.00;98417.41;5074538;28;20233;-83
2023/04/08 01:32:57;;;;;;;13.23;10.07;;;;;;;7.94;100.00;98424.38;5075116;28;20263;-84
2023/04/08 01:35:24;;;;;;;12.10;10.33;;;;;;;7.98;100.00;98423.28;5074410;28;20230;-83
2023/04/08 01:37:52;;;;;;;13.57;10.10;;;;;;;8.01;100.00;98425.72;5074532;28;20254;-84
2023/04/08 01:40:19;;;;;;;13.27;10.43;;;;;;;7.95;100.00;98416.41;5073644;28;20232;-84
2023/04/08 01:42:48;;;;;;;11.67;9.63;;;;;;;7.90;100.00;98430.75;5074185;28;20214;-84
2023/04/08 01:45:16;;;;;;;14.63;10.43;;;;;;;7.88;100.00;98429.97;5074060;28;20718;-84
2023/04/08 01:47:46;;;;;;;12.67;10.17;;;;;;;7.87;100.00;98430.91;5074405;28;20584;-84
2023/04/08 01:50:13;;;;;;;12.97;9.83;;;;;;;7.87;100.00;98420.38;5073526;28;20288;-84
2023/04/08 01:52:41;;;;;;;11.17;9.10;;;;;;;7.88;100.00;98422.06;5074106;28;20201;-84
2023/04/08 01:55:08;;;;;;;14.23;10.30;;;;;;;7.86;100.00;98419.53;5074011;28;20210;-84
2023/04/08 01:57:38;;;;;;;12.87;10.37;;;;;;;7.88;100.00;98424.69;5073871;28;20695;-84
2023/04/08 02:00:08;;;;;;;14.40;10.07;;;;;;;7.85;100.00;98425.69;5073569;28;20234;-84
2023/04/08 02:02:38;;;;;;;14.17;10.83;;;;;;;7.89;100.00;98423.78;5074105;28;20241;-83
2023/04/08 02:05:05;;;;;;;14.77;11.00;;;;;;;7.86;100.00;98426.56;5073694;28;20717;-84
2023/04/08 02:07:32;;;;;;;14.77;10.97;;;;;;;7.84;100.00;98429.28;5073753;28;20204;-84
2023/04/08 02:12:27;;;;;;;14.90;10.77;;;;;;;7.83;100.00;98426.75;4950904;29;20726;-80
2023/04/08 02:14:56;;;;;;;14.73;10.93;;;;;;;7.83;100.00;98424.13;4952319;29;20211;-81
2023/04/08 02:17:28;;;;;;;14.93;10.97;;;;;;;7.85;100.00;98423.06;4952477;29;20221;-81
2023/04/08 02:20:03;;;;;;;17.23;11.03;;;;;;;7.87;100.00;98417.75;4951762;28;20683;-80
2023/04/08 02:22:36;;;;;;;16.60;11.43;;;;;;;7.90;100.00;98422.84;4952129;29;20213;-81
2023/04/08 02:25:08;;;;;;;15.97;11.13;;;;;;;7.76;100.00;98435.88;4952321;29;20254;-80
2023/04/08 02:27:35;;;;;;;16.50;11.93;;;;;;;7.73;100.00;98428.16;4952077;29;20227;-80
2023/04/08 02:30:04;;;;;;;16.80;11.80;;;;;;;7.68;100.00;98425.78;4951265;29;20212;-77
2023/04/08 02:32:33;;;;;;;16.13;12.30;;;;;;;7.67;100.00;98426.72;4952018;28;20276;-80
2023/04/08 02:35:03;;;;;;;17.60;13.30;;;;;;;7.69;100.00;98424.84;4952068;28;20217;-80
2023/04/08 02:37:30;;;;;;;17.37;11.43;;;;;;;7.69;100.00;98426.59;4951926;29;20220;-79
2023/04/08 02:39:57;;;;;;;16.00;11.13;;;;;;;7.65;100.00;98427.72;4951028;28;20227;-79
2023/04/08 02:42:23;;;;;;;14.80;11.10;;;;;;;7.69;100.00;98429.25;4951941;28;20236;-80
2023/04/08 02:44:50;;;;;;;16.93;11.90;;;;;;;7.65;100.00;98417.22;4951731;28;20727;-79
2023/04/08 02:47:17;;;;;;;16.50;11.33;;;;;;;7.61;100.00;98415.66;4951750;29;20218;-80
2023/04/08 02:49:43;;;;;;;15.03;11.30;;;;;;;7.61;100.00;98426.19;4950908;29;20322;-80
2023/04/08 02:52:11;;;;;;;15.47;11.50;;;;;;;7.62;100.00;98422.63;4951511;28;20233;-80
2023/04/08 02:54:38;;;;;;;17.50;11.90;;;;;;;7.52;100.00;98421.38;4951797;28;20218;-80
2023/04/08 02:57:04;;;;;;;18.27;12.67;;;;;;;7.51;100.00;98428.44;4951604;29;20209;-81
2023/04/08 02:59:31;;;;;;;19.27;12.10;;;;;;;7.48;100.00;98427.75;4950771;28;20227;-79
2023/04/08 03:01:57;;;;;;;20.33;13.03;;;;;;;7.45;100.00;98425.28;4951632;29;20234;-80
2023/04/08 03:04:24;;;;;;;20.00;12.87;;;;;;;7.46;100.00;98432.22;4951517;28;20236;-79
2023/04/08 03:06:50;;;;;;;22.57;12.73;;;;;;;7.53;100.00;98431.00;4951626;28;20215;-79
2023/04/08 03:09:18;;;;;;;20.27;13.03;;;;;;;7.51;100.00;98433.69;4950857;28;20216;-79
2023/04/08 03:11:51;;;;;;;20.77;12.97;;;;;;;7.48;100.00;98435.66;4951285;29;20622;-79
2023/04/08 03:14:17;;;;;;;21.43;14.00;;;;;;;7.48;100.00;98427.75;4951388;28;20220;-79
2023/04/08 03:16:44;;;;;;;21.50;13.63;;;;;;;7.50;100.00;98429.38;4951363;28;20213;-79
2023/04/08 03:19:10;;;;;;;20.73;13.50;;;;;;;7.53;100.00;98428.38;4950569;29;20238;-79
2023/04/08 03:21:37;;;;;;;20.87;13.50;;;;;;;7.54;100.00;98436.16;4951465;28;20612;-79
2023/04/08 03:24:03;;;;;;;18.50;13.20;;;;;;;7.58;100.00;98436.84;4951332;28;20213;-79
2023/04/08 03:26:31;;;;;;;22.30;14.20;;;;;;;7.56;100.00;98438.72;4951197;29;20215;-80
2023/04/08 03:28:58;;;;;;;20.47;13.73;;;;;;;7.62;100.00;98433.13;4951169;29;20209;-79
2023/04/08 03:31:25;;;;;;;22.60;14.03;;;;;;;7.68;100.00;98435.44;4949523;29;20261;-79
2023/04/08 03:33:51;;;;;;;20.23;13.00;;;;;;;7.71;100.00;98435.28;4951423;29;20222;-79
2023/04/08 03:36:18;;;;;;;21.37;13.43;;;;;;;7.60;100.00;98437.63;4951008;29;20692;-79
2023/04/08 03:38:44;;;;;;;22.63;13.50;;;;;;;7.53;100.00;98444.97;4951273;28;20240;-79
2023/04/08 03:41:11;;;;;;;23.73;13.57;;;;;;;7.53;100.00;98441.53;4950173;29;20231;-79
2023/04/08 03:43:39;;;;;;;20.13;12.57;;;;;;;7.49;100.00;98435.56;4950784;28;20210;-79
2023/04/08 03:46:05;;;;;;;24.33;13.97;;;;;;;7.49;100.00;98442.59;4950748;29;20247;-79
2023/04/08 03:48:32;;;;;;;24.37;14.87;;;;;;;7.48;100.00;98440.91;4951036;29;20214;-80
2023/04/08 03:50:58;;;;;;;26.00;14.23;;;;;;;7.41;100.00;98445.63;4950248;28;20233;-79
2023/04/08 03:53:26;;;;;;;24.37;13.90;;;;;;;7.38;100.00;98438.84;4950958;28;20211;-80
2023/04/08 03:55:53;;;;;;;24.30;13.67;;;;;;;7.34;100.00;98435.50;4950703;29;20214;-79
2023/04/08 03:58:19;;;;;;;23.30;14.00;;;;;;;7.34;100.00;98435.50;4950697;29;20423;-79
2023/04/08 04:00:47;;;;;;;24.30;14.17;;;;;;;7.38;100.00;98429.16;4950117;28;20250;-79
2023/04/08 04:03:14;;;;;;;25.03;14.10;;;;;;;7.28;100.00;98433.19;4950872;29;20218;-78
2023/04/08 04:05:40;;;;;;;21.37;13.53;;;;;;;7.28;100.00;98432.34;4950411;28;20229;-78
2023/04/08 04:08:08;;;;;;;25.37;14.47;;;;;;;7.18;100.00;98432.78;4950670;28;20518;-79
2023/04/08 04:10:34;;;;;;;25.83;13.50;;;;;;;7.16;100.00;98438.22;4949679;29;20239;-79
2023/04/08 04:13:01;;;;;;;25.77;14.10;;;;;;;7.13;100.00;98433.97;4950444;29;20219;-79
2023/04/08 04:15:27;;;;;;;28.47;15.17;;;;;;;7.08;100.00;98441.22;4950821;28;20215;-78
2023/04/08 04:17:55;;;;;;;20.77;13.07;;;;;;;7.07;100.00;98439.53;4950303;28;20653;-79
2023/04/08 04:20:22;;;;;;;23.63;14.27;;;;;;;6.85;100.00;98441.50;4949812;29;20245;-79
2023/04/08 04:22:48;;;;;;;27.10;15.17;;;;;;;6.67;100.00;98444.22;4950576;28;20217;-79
2023/04/08 04:25:15;;;;;;;29.13;16.40;;;;;;;6.61;100.00;98442.75;4950380;28;20415;-79
2023/04/08 04:27:41;;;;;;;30.27;15.83;;;;;;;6.58;100.00;98445.50;4950079;28;20292;-78
2023/04/08 04:30:09;;;;;;;27.20;15.27;;;;;;;6.48;100.00;98444.25;4949670;28;20221;-79
2023/04/08 04:32:35;;;;;;;31.30;16.37;;;;;;;6.43;100.00;98451.50;4950531;29;20283;-79
2023/04/08 04:35:04;;;;;;;29.83;16.30;;;;;;;6.41;100.00;98439.38;4950178;29;20206;-79
2023/04/08 04:37:30;;;;;;;32.07;17.83;;;;;;;6.32;100.00;98445.03;4950106;29;20217;-78
2023/04/08 04:39:56;;;;;;;35.17;17.93;;;;;;;6.26;100.00;98443.56;4949238;28;20227;-78
2023/04/08 04:42:23;;;;;;;31.80;18.10;;;;;;;6.27;100.00;98445.28;4950035;29;20215;-79
2023/04/08 04:44:49;;;;;;;31.30;16.77;;;;;;;6.24;100.00;98448.03;4952717;28;20234;-79
2023/04/08 04:47:16;;;;;;;31.60;17.67;;;;;;;6.27;100.00;98450.53;4953447;29;20695;-79
2023/04/08 04:49:44;;;;;;;31.40;17.53;;;;;;;6.25;100.00;98456.75;4952572;28;20329;-80
2023/04/08 04:52:12;;;;;;;31.63;17.30;;;;;;;6.22;100.00;98452.50;4952757;28;20240;-78
2023/04/08 04:54:38;;;;;;;34.40;17.80;;;;;;;6.21;100.00;98458.69;4953258;28;20700;-80
2023/04/08 04:57:05;;;;;;;34.60;18.70;;;;;;;6.20;100.00;98458.75;4953442;28;20209;-80
2023/04/08 04:59:31;;;;;;;31.37;18.57;;;;;;;6.14;100.00;98457.25;4952745;29;20219;-78
2023/04/08 05:01:58;;;;;;;30.77;18.27;;;;;;;6.10;100.00;98463.56;4953098;29;20234;-79
2023/04/08 05:04:25;;;;;;;33.40;19.10;;;;;;;6.14;100.00;98462.50;4953539;28;20739;-78
2023/04/08 05:06:52;;;;;;;34.57;19.57;;;;;;;6.15;100.00;98466.84;4953313;28;20229;-80
2023/04/08 05:09:20;;;;;;;34.27;19.37;;;;;;;6.18;100.00;98466.69;4952495;29;20213;-78
2023/04/08 05:11:46;;;;;;;35.03;19.63;;;;;;;6.18;100.00;98468.47;4953137;29;20244;-79
2023/04/08 05:14:13;;;;;;;37.33;19.57;;;;;;;6.21;100.00;98466.56;4953286;28;20299;-78
2023/04/08 05:16:39;;;;;;;34.43;18.53;;;;;;;6.26;100.00;98472.44;4953052;29;20214;-79
2023/04/08 05:19:06;;;;;;;30.87;17.40;;;;;;;6.28;100.00;98478.47;4952926;28;20222;-79
2023/04/08 05:21:32;;;;;;;30.97;17.90;;;;;;;6.32;100.00;98485.28;4952608;29;20231;-79
2023/04/08 05:23:59;;;;;;;31.63;18.00;;;;;;;6.30;100.00;98487.09;4953122;29;20602;-78
2023/04/08 05:26:26;;;;;;;33.30;17.90;;;;;;;6.41;100.00;98487.47;4953042;29;20227;-78
2023/04/08 05:28:53;;;;;;;31.23;18.57;;;;;;;6.55;100.00;98500.81;4953013;29;20214;-79
2023/04/08 05:31:20;;;;;;;30.47;17.07;;;;;;;6.59;100.00;98496.25;4952383;28;20242;-78
2023/04/08 05:33:47;;;;;;;31.03;18.57;;;;;;;6.75;100.00;98498.06;4953005;28;20240;-79
2023/04/08 05:36:14;;;;;;;28.80;17.50;;;;;;;6.75;100.00;98495.44;4952779;29;20214;-79
2023/04/08 05:38:42;;;;;;;27.60;17.20;;;;;;;6.82;100.00;98496.84;4952737;29;20217;-79
2023/04/08 05:41:08;;;;;;;30.23;17.37;;;;;;;6.86;100.00;98501.03;4952166;29;20746;-80
2023/04/08 05:43:36;;;;;;;28.67;16.87;;;;;;;6.94;100.00;98498.88;4952798;29;20225;-80
2023/04/08 05:46:06;;;;;;;31.13;18.83;;;;;;;7.00;100.00;98506.47;4952890;28;20242;-78
2023/04/08 05:48:33;;;;;;;26.50;17.17;;;;;;;7.07;100.00;98502.59;4952808;29;20193;-80
2023/04/08 05:50:59;;;;;;;29.27;17.17;;;;;;;7.20;100.00;98508.13;4951451;29;20229;-78
2023/04/08 05:53:26;;;;;;;26.63;17.03;;;;;;;7.24;100.00;98513.16;4952356;29;20208;-81
2023/04/08 05:55:53;;;;;;;25.83;16.30;;;;;;;7.22;100.00;98507.94;4952104;28;20209;-80
2023/04/08 05:58:19;;;;;;;26.80;16.40;;;;;;;7.27;100.00;98504.25;4952398;28;20212;-79
2023/04/08 06:00:47;;;;;;;26.47;16.33;;;;;;;7.32;100.00;98508.34;4951864;28;20233;-79
2023/04/08 06:03:13;;;;;;;28.37;16.37;;;;;;;7.36;100.00;98509.91;4952315;29;20219;-81
2023/04/08 06:05:40;;;;;;;26.30;17.20;;;;;;;7.35;100.00;98519.56;4952333;28;20254;-80
2023/04/08 06:08:06;;;;;;;28.13;17.13;;;;;;;7.33;100.00;98520.56;4952583;28;20211;-80
2023/04/08 06:10:33;;;;;;;25.37;16.77;;;;;;;7.42;100.00;98520.09;4951795;28;20244;-76
2023/04/08 06:12:59;;;;;;;23.67;16.27;;;;;;;7.43;100.00;98519.19;4953323;29;20573;-83
2023/04/08 06:15:26;;;;;;;26.40;16.30;;;;;;;7.55;100.00;98521.19;4952367;28;20215;-79
2023/04/08 06:17:54;;;;;;;23.27;15.77;;;;;;;7.56;100.00;98530.78;4952209;28;20209;-82
2023/04/08 06:20:21;;;;;;;24.00;16.20;;;;;;;7.62;100.00;98522.56;4951521;29;20246;-79
2023/04/08 06:22:47;;;;;;;23.97;15.70;;;;;;;7.71;100.00;98527.38;4952288;29;20225;-80
2023/04/08 06:25:14;;;;;;;24.27;16.10;;;;;;;7.77;100.00;98529.69;4952466;29;20342;-81
2023/04/08 06:27:40;;;;;;;23.57;15.97;;;;;;;7.84;100.00;98534.53;4952283;28;20218;-80
2023/04/08 06:30:08;;;;;;;23.73;15.67;;;;;;;7.89;100.00;98526.41;4950737;28;20215;-82
2023/04/08 06:32:35;;;;;;;19.97;14.53;;;;;;;7.88;100.00;98529.94;4952075;29;20223;-80
2023/04/08 06:35:03;;;;;;;21.50;15.60;;;;;;;7.85;100.00;98532.75;4952191;29;20214;-78
2023/04/08 06:37:29;;;;;;;21.10;14.67;;;;;;;7.93;100.00;98533.19;4952231;29;20226;-79
2023/04/08 06:39:56;;;;;;;21.90;14.23;;;;;;;7.94;100.00;98541.03;4951260;29;20215;-79
2023/04/08 06:42:22;;;;;;;19.93;14.73;;;;;;;8.01;100.00;98538.91;4951829;29;20210;-80
2023/04/08 06:44:49;;;;;;;24.17;15.53;;;;;;;8.03;100.00;98537.91;4951922;29;20219;-82
2023/04/08 06:47:16;;;;;;;21.20;14.40;;;;;;;8.15;100.00;98533.78;4951615;29;20242;-83
2023/04/08 06:49:42;;;;;;;21.90;14.00;;;;;;;8.09;100.00;98539.38;4948570;29;20215;-79
2023/04/08 06:52:10;;;;;;;19.60;13.77;;;;;;;8.14;100.00;98547.88;4949989;29;20238;-79
2023/04/08 06:54:37;;;;;;;19.30;13.47;;;;;;;8.21;100.00;98544.03;4951752;29;20219;-79
2023/04/08 06:57:03;;;;;;;20.00;14.17;;;;;;;8.22;100.00;98541.31;4950673;29;20218;-79
2023/04/08 06:59:30;;;;;;;19.90;13.67;;;;;;;8.25;100.00;98551.66;4948089;29;20215;-79
2023/04/08 07:01:56;;;;;;;19.33;13.60;;;;;;;8.39;100.00;98553.56;4949109;29;20606;-79
2023/04/08 07:04:23;;;;;;;18.10;13.43;;;;;;;8.40;100.00;98560.53;4951703;29;20218;-79
2023/04/08 07:06:49;;;;;;;19.13;13.57;;;;;;;8.36;100.00;98554.59;4950308;29;20711;-79
2023/04/08 07:09:17;;;;;;;19.73;13.57;;;;;;;8.47;100.00;98551.38;4947374;29;20310;-79
2023/04/08 07:11:44;;;;;;;19.20;13.30;;;;;;;8.58;100.00;98559.53;4948550;29;20242;-80
2023/04/08 07:14:11;;;;;;;17.43;12.73;;;;;;;8.61;100.00;98562.00;4950368;29;20221;-79
2023/04/08 07:16:38;;;;;;;17.33;12.63;;;;;;;8.71;100.00;98552.66;4951671;29;20217;-79
2023/04/08 07:19:05;;;;;;;16.23;11.57;;;;;;;8.75;100.00;98549.78;4951075;29;20235;-79
2023/04/08 07:21:32;;;;;;;15.93;11.17;;;;;;;8.90;100.00;98546.31;4951267;29;20257;-79
2023/04/08 07:23:58;;;;;;;14.37;11.43;;;;;;;8.84;100.00;98544.00;4949890;29;20218;-79
2023/04/08 07:26:27;;;;;;;13.80;10.17;;;;;;;8.90;100.00;98545.44;4948959;29;20235;-79
2023/04/08 07:28:53;;;;;;;12.93;10.63;;;;;;;9.02;100.00;98547.38;4950008;29;20219;-80
2023/04/08 07:31:20;;;;;;;13.90;10.63;;;;;;;9.01;100.00;98553.59;4936027;29;20227;-80
2023/04/08 07:33:46;;;;;;;14.13;9.87;;;;;;;8.95;100.00;98556.56;4930263;29;20220;-80
2023/04/08 07:36:14;;;;;;;13.67;10.80;;;;;;;9.10;100.00;98558.34;4930992;29;20231;-80
2023/04/08 07:38:41;;;;;;;14.90;10.80;;;;;;;9.18;100.00;98561.41;4930376;28;20638;-80
2023/04/08 07:41:07;;;;;;;13.80;10.77;;;;;;;9.24;100.00;98561.06;4931158;29;20239;-80
2023/04/08 07:43:35;;;;;;;14.30;10.87;;;;;;;9.31;99.27;98549.22;4931742;29;20219;-79
2023/04/08 07:46:03;;;;;;;15.03;11.00;;;;;;;9.36;98.43;98555.09;4931900;29;20612;-79
2023/04/08 07:48:30;;;;;;;13.27;10.57;;;;;;;9.33;98.22;98565.81;4932048;29;20213;-79
2023/04/08 07:50:56;;;;;;;13.97;10.83;;;;;;;9.38;98.76;98559.34;4930870;29;20716;-80
2023/04/08 07:53:25;;;;;;;13.40;10.30;;;;;;;9.47;98.09;98557.94;4931693;29;20221;-80
2023/04/08 07:55:52;;;;;;;13.07;9.57;;;;;;;9.48;97.46;98564.94;4931696;29;20765;-81
2023/04/08 07:58:19;;;;;;;13.23;10.30;;;;;;;9.54;97.75;98564.56;4931581;29;20217;-84
2023/04/08 08:00:47;;;;;;;13.97;10.77;;;;;;;9.65;97.48;98573.56;4930929;29;20697;-77
2023/04/08 08:03:13;;;;;;;13.63;10.60;;;;;;;9.62;95.45;98583.44;4931746;29;20215;-77
2023/04/08 08:05:40;;;;;;;14.50;10.33;;;;;;;9.80;93.30;98562.09;4930701;29;20212;-78
2023/04/08 08:08:07;;;;;;;14.13;10.40;;;;;;;9.83;92.45;98566.34;4931324;29;20218;-78
2023/04/08 08:10:33;;;;;;;14.10;10.60;;;;;;;9.77;92.32;98566.69;4951566;22;20240;-80
2023/04/08 08:13:00;;;;;;;13.73;10.43;;;;;;;9.86;92.77;98567.00;5048873;28;20211;-80
2023/04/08 08:15:26;;;;;;;14.07;10.50;;;;;;;9.90;91.70;98568.53;5049530;28;20204;-81
2023/04/08 08:17:54;;;;;;;14.93;10.87;;;;;;;9.91;91.18;98564.94;5051398;28;20204;-81
2023/04/08 08:20:21;;;;;;;12.70;9.17;;;;;;;9.89;90.23;98560.69;5050559;28;20234;-79
2023/04/08 08:22:47;;;;;;;12.43;10.03;;;;;;;9.87;89.70;98568.72;5051351;28;20676;-79
2023/04/08 08:25:14;;;;;;;14.73;11.00;;;;;;;10.03;90.20;98566.88;5051526;28;20225;-81
2023/04/08 08:27:41;;;;;;;13.13;9.80;;;;;;;10.15;89.71;98567.94;5051534;28;20232;-80
2023/04/08 08:30:09;;;;;;;13.23;10.90;;;;;;;10.02;87.62;98559.00;5050523;28;20639;-78
2023/04/08 08:32:36;;;;;;;13.20;10.80;;;;;;;10.23;86.50;98561.25;5050674;28;20274;-79
2023/04/08 08:35:04;;;;;;;13.00;10.17;;;;;;;10.30;86.62;98559.94;5051076;28;20285;-80
2023/04/08 08:37:30;;;;;;;13.77;10.57;;;;;;;10.35;84.61;98563.13;5051333;28;20210;-80
2023/04/08 08:39:57;;;;;;;11.90;10.47;;;;;;;10.47;83.58;98558.91;5050326;28;20211;-78
2023/04/08 08:42:25;;;;;;;13.20;11.10;;;;;;;10.55;83.33;98567.19;5050980;28;20722;-78
2023/04/08 08:44:51;;;;;;;13.63;10.50;;;;;;;10.34;82.56;98565.88;5051065;28;20212;-78
2023/04/08 08:47:18;;;;;;;14.70;11.77;;;;;;;10.39;82.90;98571.75;5050885;28;20233;-78
2023/04/08 08:49:45;;;;;;;13.43;10.93;;;;;;;10.45;82.62;98574.84;5050251;28;20207;-77
2023/04/08 08:52:15;;;;;;;14.27;11.40;;;;;;;10.60;82.32;98571.25;5051180;28;20642;-78
2023/04/08 08:54:42;;;;;;;15.47;11.10;;;;;;;10.71;80.10;98574.06;5051136;28;20232;-78
2023/04/08 08:57:17;;;;;;;13.37;11.13;;;;;;;10.71;76.96;98558.19;5051123;28;20211;-78
2023/04/08 08:59:46;;;;;;;13.20;10.70;;;;;;;10.72;77.80;98567.84;5050489;28;20566;-76
2023/04/08 09:02:25;;;;;;;13.63;11.50;;;;;;;10.68;79.79;98584.84;5050953;28;20735;-77
2023/04/08 09:04:57;;;;;;;13.23;10.70;;;;;;;10.69;79.12;98570.66;5050771;28;20207;-78
2023/04/08 09:07:26;;;;;;;13.30;11.47;;;;;;;10.59;79.61;98587.22;5050972;28;20238;-78
2023/04/08 09:09:54;;;;;;;14.70;10.27;;;;;;;10.60;79.92;98580.97;5050106;28;20216;-81
2023/04/08 09:12:20;;;;;;;12.13;9.87;;;;;;;10.76;78.97;98582.56;5050423;28;20270;-78
2023/04/08 09:14:47;;;;;;;12.70;10.63;;;;;;;10.86;77.76;98577.53;5050565;28;20204;-78
2023/04/08 09:17:14;;;;;;;13.13;10.43;;;;;;;11.07;77.46;98579.66;5050411;28;20210;-78
2023/04/08 09:20:05;;;;;;;13.73;11.00;;;;;;;11.19;74.54;98565.66;5049989;28;20238;-79
2023/04/08 09:22:33;;;;;;;13.97;11.53;;;;;;;10.84;72.45;98560.94;5050661;28;20242;-79
2023/04/08 09:24:59;;;;;;;13.50;10.47;;;;;;;10.98;70.99;98555.59;5050846;28;20219;-80
2023/04/08 09:27:34;;;;;;;13.80;10.47;;;;;;;11.19;70.29;98560.34;5050689;28;20242;-81
2023/04/08 09:30:13;;;;;;;12.40;10.67;;;;;;;11.30;69.38;98546.41;5052430;28;20721;-81
2023/04/08 09:32:48;;;;;;;12.73;10.60;;;;;;;11.21;62.39;98515.28;5063406;28;20215;-81
2023/04/08 09:35:15;;;;;;;13.47;10.87;;;;;;;11.46;62.45;98531.25;5070931;28;20210;-82
2023/04/08 09:37:43;;;;;;;13.40;10.70;;;;;;;11.51;63.46;98543.25;5071789;28;20206;-85
2023/04/08 09:40:10;;;;;;;13.63;11.03;;;;;;;11.61;63.38;98538.22;5073408;28;20208;-85
2023/04/08 09:42:40;;;;;;;13.80;11.10;;;;;;;11.68;65.04;98542.97;5054927;28;20243;-84
2023/04/08 09:45:09;;;;;;;13.03;11.00;;;;;;;11.79;60.31;98518.44;5054993;28;20248;-85
2023/04/08 09:47:42;;;;;;;13.90;11.07;;;;;;;11.60;60.82;98533.84;5055062;28;20660;-76
2023/04/08 09:50:09;;;;;;;13.73;11.03;;;;;;;11.64;59.78;98530.91;5054203;28;20224;-87
2023/04/08 09:52:44;;;;;;;12.90;11.07;;;;;;;11.77;58.00;98507.09;5054582;28;20235;-85
2023/04/08 09:55:13;;;;;;;11.80;10.57;;;;;;;11.93;58.03;98513.88;5055795;28;20201;-90
2023/04/08 09:57:46;;;;;;;12.07;10.47;;;;;;;12.21;56.23;98504.84;5055722;28;20206;-79
2023/04/08 10:00:15;;;;;;;13.30;10.33;;;;;;;12.22;55.16;98496.81;5054051;28;20207;-85
2023/04/08 10:02:49;;;;;;;13.83;10.83;;;;;;;12.04;55.35;98503.38;5054576;28;20216;-87
2023/04/08 10:05:17;;;;;;;13.00;10.97;;;;;;;12.29;54.48;98497.25;5055077;28;20202;-86
2023/04/08 10:07:44;;;;;;;11.53;9.47;;;;;;;12.33;55.67;98509.31;5054757;28;20616;-89
2023/04/08 10:10:12;;;;;;;13.20;9.50;;;;;;;12.35;54.09;98494.16;5054343;28;20685;-89
2023/04/08 10:12:40;;;;;;;12.83;10.07;;;;;;;12.24;54.07;98502.00;5054382;28;20322;-88
2023/04/08 10:15:22;;;;;;;19.00;13.43;;;;;;;12.06;55.09;98511.25;5054530;28;20298;-85
2023/04/08 10:17:49;;;;;;;15.50;11.27;;;;;;;11.83;56.22;98509.31;5054623;28;20261;-89
2023/04/08 10:20:41;;;;;;;13.07;10.83;;;;;;;11.61;56.37;98514.38;5053772;28;20208;-88
2023/04/08 10:23:12;;;;;;;12.73;10.20;;;;;;;11.61;56.70;98515.22;5054547;28;20678;-89
2023/04/08 10:25:41;;;;;;;12.40;10.27;;;;;;;11.56;57.06;98524.41;5054277;28;20763;-87
2023/04/08 10:28:26;;;;;;;13.40;10.40;;;;;;;11.60;56.57;98520.59;5054553;28;20364;-82
2023/04/08 10:30:53;;;;;;;15.57;11.77;;;;;;;11.52;56.08;98504.38;5053638;28;20315;-86
2023/04/08 10:33:23;;;;;;;14.40;11.50;;;;;;;11.43;55.24;98500.53;5053812;28;20582;-82
2023/04/08 10:35:53;;;;;;;14.43;10.77;;;;;;;11.39;55.68;98503.50;5053821;28;20208;-85
2023/04/08 10:38:21;;;;;;;12.40;10.23;;;;;;;11.42;56.02;98508.56;5053724;28;20208;-82
2023/04/08 10:40:50;;;;;;;12.40;10.03;;;;;;;11.43;56.27;98515.56;5052525;28;20228;-82
2023/04/08 10:43:17;;;;;;;11.27;9.13;;;;;;;11.38;56.64;98518.50;5053445;28;20572;-82
2023/04/08 10:45:44;;;;;;;10.70;9.60;;;;;;;11.25;57.01;98522.09;5053538;28;20204;-82
2023/04/08 10:48:16;;;;;;;11.30;10.10;;;;;;;11.16;57.44;98533.25;5053377;28;20239;-81
2023/04/08 10:50:43;;;;;;;12.13;9.23;;;;;;;11.22;57.34;98520.47;5052826;28;20593;-82
2023/04/08 10:53:11;;;;;;;11.33;9.70;;;;;;;11.22;57.32;98527.56;5053522;28;20207;-82
2023/04/08 10:55:37;;;;;;;15.33;9.10;;;;;;;11.32;57.92;98528.66;5053310;28;20666;-83
2023/04/08 10:58:10;;;;;;;10.87;9.73;;;;;;;11.30;58.37;98541.13;5053397;28;20234;-82
2023/04/08 11:00:38;;;;;;;10.70;9.60;;;;;;;11.29;58.02;98539.44;5052687;28;20228;-82
2023/04/08 11:03:06;;;;;;;11.60;9.63;;;;;;;11.31;59.06;98558.72;5053491;28;20722;-82
2023/04/08 11:05:33;;;;;;;11.77;9.87;;;;;;;11.27;57.75;98530.75;5052843;28;20204;-82
2023/04/08 11:08:01;;;;;;;12.10;10.10;;;;;;;11.22;56.68;98523.13;5052880;28;20324;-82
2023/04/08 11:10:28;;;;;;;12.83;9.53;;;;;;;11.21;57.16;98526.72;5052391;28;20234;-82
2023/04/08 11:12:55;;;;;;;19.97;12.83;;;;;;;11.18;57.16;98526.09;5052870;28;20667;-84
2023/04/08 11:15:25;;;;;;;15.67;13.00;;;;;;;11.12;55.58;98510.63;5053162;28;20210;-83
2023/04/08 11:17:52;;;;;;;11.93;10.10;;;;;;;11.08;57.20;98530.25;5052945;28;20216;-83
2023/04/08 11:20:19;;;;;;;13.37;10.90;;;;;;;11.08;57.54;98531.09;5052215;28;20265;-79
2023/04/08 11:22:47;;;;;;;11.70;10.00;;;;;;;11.20;56.40;98530.28;5052625;28;20265;-77
2023/04/08 11:25:14;;;;;;;18.83;14.23;;;;;;;11.26;56.18;98523.78;5052829;28;20211;-79